Time;durP1;ratioP1;P1;durP2;ratioP2;P2;SDS_P1;SDS_P2;PMS_P1;PMS_P2;Temp;Humidity;BMP_temperature;BMP_pressure;BME280_temperature;BME280_humidity;BME280_pressure;Samples;Min_cycle;Max_cycle;Signal;HPM_P1;HPM_P2
2023/01/15 00:01:37;;;;;;;1.20;1.10;;;;;;;10.06;47.65;94787.97;5075048;28;20193;-85
2023/01/15 00:04:06;;;;;;;1.47;1.07;;;;;;;10.06;47.93;94769.97;5075675;28;20208;-87
2023/01/15 00:06:36;;;;;;;1.70;1.20;;;;;;;9.99;47.69;94758.88;5075480;28;20193;-86
2023/01/15 00:09:04;;;;;;;1.00;0.90;;;;;;;9.99;47.79;94762.25;5074578;28;20204;-85
2023/01/15 00:11:30;;;;;;;1.20;1.10;;;;;;;9.98;47.62;94752.16;5073095;28;20193;-85
2023/01/15 00:13:57;;;;;;;1.73;1.00;;;;;;;9.98;48.64;94750.38;5076083;28;20235;-83
2023/01/15 00:16:25;;;;;;;1.10;1.00;;;;;;;9.94;47.83;94744.03;5074865;28;20201;-82
2023/01/15 00:18:52;;;;;;;1.00;0.90;;;;;;;9.92;47.18;94747.75;5074658;28;20209;-83
2023/01/15 00:21:19;;;;;;;0.93;0.93;;;;;;;9.87;47.16;94750.91;5075218;28;20599;-84
2023/01/15 00:29:17;;;;;;;1.20;1.00;;;;;;;9.88;47.55;94739.66;5078296;28;20204;-85
2023/01/15 00:31:51;;;;;;;1.00;0.90;;;;;;;9.86;46.86;94740.81;5078530;28;20235;-84
2023/01/15 00:34:17;;;;;;;1.40;1.10;;;;;;;9.87;47.60;94734.69;5071355;28;20234;-85
2023/01/15 00:36:43;;;;;;;1.20;1.10;;;;;;;9.80;47.74;94732.13;5078208;28;20224;-83
2023/01/15 00:39:10;;;;;;;1.10;1.00;;;;;;;9.84;47.62;94715.28;5077804;28;20303;-84
2023/01/15 00:41:38;;;;;;;1.20;1.10;;;;;;;9.83;47.56;94716.28;5079086;28;20193;-84
2023/01/15 00:44:04;;;;;;;0.93;0.90;;;;;;;9.86;47.48;94715.09;5079470;28;20200;-84
2023/01/15 00:46:31;;;;;;;1.10;1.00;;;;;;;9.83;47.79;94716.28;5078993;28;20243;-85
2023/01/15 00:48:57;;;;;;;1.57;1.10;;;;;;;9.89;47.74;94705.22;5078222;28;20664;-84
2023/01/15 00:51:23;;;;;;;1.70;1.00;;;;;;;9.85;47.99;94718.66;5078561;28;20851;-84
2023/01/15 00:53:50;;;;;;;1.00;0.90;;;;;;;9.88;48.33;94716.50;5078950;28;20763;-84
2023/01/15 00:56:18;;;;;;;1.00;1.00;;;;;;;9.86;48.33;94725.38;5078925;28;20205;-84
2023/01/15 00:58:46;;;;;;;0.93;0.80;;;;;;;9.86;48.46;94704.81;5078160;28;20213;-84
2023/01/15 01:01:13;;;;;;;1.23;1.10;;;;;;;9.83;48.85;94713.72;5078644;28;20211;-84
2023/01/15 01:03:39;;;;;;;3.03;1.00;;;;;;;9.84;49.17;94712.72;5078899;28;20623;-83
2023/01/15 01:06:06;;;;;;;1.13;1.07;;;;;;;9.83;48.89;94706.00;5077858;28;20216;-83
2023/01/15 01:08:33;;;;;;;1.10;0.90;;;;;;;9.83;49.48;94695.72;5077856;28;20221;-84
2023/01/15 01:11:04;;;;;;;0.80;0.80;;;;;;;9.69;49.14;94705.16;5077906;28;20196;-83
2023/01/15 01:13:31;;;;;;;1.30;0.90;;;;;;;9.74;49.23;94694.31;5078734;28;20220;-84
2023/01/15 01:15:59;;;;;;;1.00;0.90;;;;;;;9.75;49.08;94700.25;5077209;28;20232;-85
2023/01/15 01:18:26;;;;;;;1.27;1.00;;;;;;;9.70;49.10;94695.69;5078093;28;20704;-84
2023/01/15 01:20:53;;;;;;;1.83;1.00;;;;;;;9.70;49.62;94680.25;5077875;28;20196;-84
2023/01/15 01:23:20;;;;;;;1.10;1.00;;;;;;;9.67;49.71;94681.44;5077909;28;20193;-83
2023/01/15 01:25:46;;;;;;;2.10;0.90;;;;;;;9.64;49.60;94688.72;5080415;28;20200;-84
2023/01/15 01:28:13;;;;;;;1.80;0.90;;;;;;;9.63;50.56;94692.28;5077965;28;20286;-84
2023/01/15 01:30:40;;;;;;;1.00;0.90;;;;;;;9.57;50.79;94682.78;5077463;28;20197;-84
2023/01/15 01:33:08;;;;;;;1.10;1.00;;;;;;;9.58;52.03;94676.66;5077177;28;20224;-83
2023/01/15 01:35:35;;;;;;;1.03;1.00;;;;;;;9.63;52.33;94667.38;5077824;28;20205;-84
2023/01/15 01:38:01;;;;;;;1.33;1.10;;;;;;;9.56;52.04;94660.66;5077139;28;20280;-84
2023/01/15 01:40:28;;;;;;;1.90;1.40;;;;;;;9.51;52.42;94663.00;5075531;28;20256;-83
2023/01/15 01:42:54;;;;;;;1.40;1.30;;;;;;;9.40;52.71;94656.66;5077444;28;20568;-84
2023/01/15 01:45:25;;;;;;;1.13;1.03;;;;;;;9.38;53.92;94644.97;5077875;28;20228;-85
2023/01/15 01:47:54;;;;;;;1.53;1.33;;;;;;;9.32;54.18;94631.13;5076403;28;20223;-84
2023/01/15 01:50:22;;;;;;;1.67;0.90;;;;;;;9.22;54.04;94626.34;5077155;28;20205;-84
2023/01/15 01:52:53;;;;;;;1.00;0.90;;;;;;;9.25;55.01;94625.94;5077211;28;20274;-83
2023/01/15 01:55:23;;;;;;;1.00;0.90;;;;;;;9.27;54.38;94629.13;5076444;28;20672;-84
2023/01/15 01:57:52;;;;;;;1.07;0.97;;;;;;;9.35;54.10;94618.69;5077054;28;20224;-84
2023/01/15 02:00:20;;;;;;;1.10;1.00;;;;;;;9.39;55.09;94608.03;5077655;28;20216;-84
2023/01/15 02:02:49;;;;;;;0.97;0.90;;;;;;;9.31;54.16;94591.78;5077424;28;20200;-84
2023/01/15 02:05:21;;;;;;;0.80;0.80;;;;;;;9.28;53.75;94596.50;5077182;28;20201;-84
2023/01/15 02:07:49;;;;;;;1.13;0.80;;;;;;;9.28;53.29;94597.31;5076482;28;20220;-84
2023/01/15 02:10:16;;;;;;;0.80;0.80;;;;;;;9.30;53.29;94592.78;5078023;28;20266;-84
2023/01/15 02:12:49;;;;;;;1.10;1.00;;;;;;;9.35;53.57;94593.00;5077408;28;20246;-84
2023/01/15 02:15:23;;;;;;;0.80;0.80;;;;;;;9.38;53.22;94591.81;5077114;28;20205;-84
2023/01/15 02:17:55;;;;;;;0.80;0.80;;;;;;;9.48;53.17;94592.22;5077212;28;20216;-83
2023/01/15 02:20:29;;;;;;;0.60;0.60;;;;;;;9.47;52.71;94582.16;5076370;28;20197;-84
2023/01/15 02:23:20;;;;;;;0.77;0.77;;;;;;;9.52;52.46;94588.28;5078200;28;20212;-84
2023/01/15 02:26:03;;;;;;;1.43;0.90;;;;;;;9.54;52.88;94580.41;5083670;28;20208;-83
2023/01/15 02:28:34;;;;;;;0.80;0.70;;;;;;;9.56;52.80;94570.72;5081828;28;20216;-84
2023/01/15 02:31:06;;;;;;;1.33;0.83;;;;;;;9.60;52.81;94577.06;5088828;28;20204;-83
2023/01/15 02:33:36;;;;;;;1.30;0.93;;;;;;;9.62;53.21;94572.53;5068484;28;20217;-83
2023/01/15 02:36:06;;;;;;;2.33;0.87;;;;;;;9.63;53.40;94571.50;5076409;28;20702;-83
2023/01/15 02:38:36;;;;;;;0.80;0.70;;;;;;;9.69;53.32;94565.59;5087757;28;20220;-83
2023/01/15 02:41:06;;;;;;;0.80;0.80;;;;;;;9.61;53.26;94564.00;5089178;28;20193;-83
2023/01/15 02:43:38;;;;;;;0.97;0.90;;;;;;;9.63;53.21;94562.00;5088338;28;20226;-86
2023/01/15 02:46:06;;;;;;;0.80;0.80;;;;;;;9.68;53.36;94558.88;5088348;28;20189;-85
2023/01/15 02:48:37;;;;;;;0.70;0.70;;;;;;;9.65;53.66;94565.19;5086007;28;20216;-86
2023/01/15 02:51:13;;;;;;;0.80;0.80;;;;;;;9.60;53.35;94556.50;5078674;28;20569;-86
2023/01/15 02:53:44;;;;;;;1.57;0.77;;;;;;;9.60;53.32;94554.72;5080299;28;20220;-86
2023/01/15 02:56:14;;;;;;;0.90;0.80;;;;;;;9.62;53.91;94555.28;5080641;28;20465;-83
2023/01/15 02:58:44;;;;;;;0.80;0.80;;;;;;;9.67;53.83;94547.00;5080186;28;20220;-84
2023/01/15 03:01:14;;;;;;;1.07;0.90;;;;;;;9.70;53.71;94549.97;5081192;28;20197;-83
2023/01/15 03:03:46;;;;;;;0.70;0.70;;;;;;;9.77;53.47;94544.84;5080373;28;20227;-84
2023/01/15 03:06:24;;;;;;;1.57;0.90;;;;;;;9.76;53.77;94532.19;5080133;28;20453;-83
2023/01/15 03:08:51;;;;;;;1.80;0.80;;;;;;;9.75;53.75;94528.84;5079847;28;20200;-83
2023/01/15 03:11:19;;;;;;;1.03;0.90;;;;;;;9.74;53.66;94531.59;5079607;28;20598;-83
2023/01/15 03:13:51;;;;;;;1.80;1.00;;;;;;;9.79;53.75;94524.09;5080020;28;20224;-83
2023/01/15 03:16:34;;;;;;;0.97;0.80;;;;;;;9.80;53.42;94517.97;5079800;28;20197;-84
2023/01/15 03:19:06;;;;;;;0.90;0.90;;;;;;;9.79;54.19;94506.09;5079594;28;20193;-84
2023/01/15 03:21:43;;;;;;;0.93;0.80;;;;;;;9.81;54.77;94504.91;5079139;28;20196;-83
2023/01/15 03:24:12;;;;;;;0.70;0.70;;;;;;;9.82;55.05;94506.47;5079053;28;20235;-84
2023/01/15 03:26:41;;;;;;;1.00;0.90;;;;;;;9.78;55.86;94489.09;5079379;28;20204;-83
2023/01/15 03:29:10;;;;;;;1.70;1.03;;;;;;;9.80;55.66;94503.34;5079016;28;20216;-86
2023/01/15 03:31:37;;;;;;;0.90;0.90;;;;;;;9.76;55.75;94507.28;5078678;28;20197;-84
2023/01/15 03:34:05;;;;;;;1.50;0.90;;;;;;;9.79;55.30;94498.41;5077881;28;20802;-86
2023/01/15 03:36:32;;;;;;;0.80;0.80;;;;;;;9.74;55.88;94493.84;5077637;28;20201;-85
2023/01/15 03:38:59;;;;;;;0.90;0.90;;;;;;;9.77;55.70;94485.72;5077538;28;20197;-84
2023/01/15 03:41:39;;;;;;;0.83;0.83;;;;;;;9.74;55.68;94482.75;5078546;28;20209;-84
2023/01/15 03:44:17;;;;;;;1.63;0.90;;;;;;;9.77;55.41;94487.50;5079930;28;20193;-84
2023/01/15 03:46:55;;;;;;;0.97;0.97;;;;;;;9.82;55.27;94497.97;5078913;28;20193;-84
2023/01/15 03:49:28;;;;;;;0.70;0.70;;;;;;;9.81;55.27;94489.50;5079068;28;20207;-84
2023/01/15 03:52:02;;;;;;;0.87;0.83;;;;;;;9.85;55.25;94492.44;5079443;28;20235;-83
2023/01/15 03:54:40;;;;;;;0.90;0.90;;;;;;;9.88;55.08;94487.69;5078854;28;20223;-85
2023/01/15 03:57:14;;;;;;;0.80;0.80;;;;;;;9.92;55.01;94475.25;5078608;28;20335;-83
2023/01/15 03:59:49;;;;;;;0.80;0.80;;;;;;;9.93;54.92;94471.69;5078815;28;20200;-84
2023/01/15 04:02:20;;;;;;;0.70;0.70;;;;;;;9.92;54.89;94473.47;5060783;28;20208;-84
2023/01/15 04:04:48;;;;;;;0.70;0.70;;;;;;;9.92;55.01;94470.88;5063603;28;20202;-84
2023/01/15 04:07:15;;;;;;;1.20;0.90;;;;;;;9.95;54.47;94470.50;5082656;28;20275;-84
2023/01/15 04:09:42;;;;;;;0.70;0.70;;;;;;;9.95;54.38;94452.50;5083195;28;20212;-83
2023/01/15 04:12:09;;;;;;;1.17;0.70;;;;;;;10.03;54.39;94462.56;5082873;28;20201;-83
2023/01/15 04:14:38;;;;;;;0.60;0.60;;;;;;;10.09;54.08;94471.25;5083340;28;20220;-83
2023/01/15 04:17:05;;;;;;;0.80;0.80;;;;;;;10.08;54.38;94461.16;5081778;28;20227;-83
2023/01/15 04:19:32;;;;;;;0.80;0.77;;;;;;;10.04;54.36;94458.19;5082125;28;20193;-83
2023/01/15 04:21:58;;;;;;;0.77;0.77;;;;;;;10.06;54.30;94458.78;5082436;28;20552;-84
2023/01/15 04:24:25;;;;;;;0.80;0.80;;;;;;;10.11;54.03;94455.63;5081924;28;20189;-84
2023/01/15 04:26:51;;;;;;;1.10;0.70;;;;;;;10.16;53.95;94458.41;5082913;28;20239;-84
2023/01/15 04:29:18;;;;;;;0.93;0.87;;;;;;;10.14;53.78;94455.22;5081717;28;20192;-83
2023/01/15 04:31:45;;;;;;;1.13;0.90;;;;;;;10.19;54.08;94450.31;5081532;28;20205;-84
2023/01/15 04:34:12;;;;;;;1.07;0.80;;;;;;;10.19;53.93;94445.16;5081311;28;20224;-84
2023/01/15 04:36:45;;;;;;;1.03;0.83;;;;;;;10.13;54.23;94439.00;5080941;28;20197;-84
2023/01/15 04:39:11;;;;;;;0.70;0.70;;;;;;;10.14;54.64;94434.66;5079799;28;20226;-83
2023/01/15 04:44:26;;;;;;;0.90;0.80;;;;;;;10.13;54.34;94427.94;5080993;28;20254;-84
2023/01/15 04:46:53;;;;;;;0.80;0.80;;;;;;;10.12;54.56;94424.56;5080709;28;20827;-84
2023/01/15 04:49:21;;;;;;;0.90;0.73;;;;;;;10.14;54.28;94424.38;5081022;28;20197;-84
2023/01/15 04:51:47;;;;;;;0.80;0.80;;;;;;;10.15;54.07;94418.22;5080610;28;20192;-83
2023/01/15 04:54:15;;;;;;;1.63;0.80;;;;;;;10.16;54.36;94415.47;5081454;28;20251;-83
2023/01/15 04:56:44;;;;;;;0.87;0.80;;;;;;;10.17;54.11;94434.25;5080851;28;20254;-83
2023/01/15 04:59:10;;;;;;;0.90;0.80;;;;;;;10.16;53.99;94427.53;5080206;28;21414;-83
2023/01/15 05:01:37;;;;;;;0.67;0.67;;;;;;;10.19;53.79;94416.88;5075622;28;20285;-84
2023/01/15 05:04:04;;;;;;;0.73;0.73;;;;;;;10.21;53.84;94418.22;5074023;28;20208;-83
2023/01/15 05:06:32;;;;;;;1.00;0.90;;;;;;;10.20;53.78;94418.47;5075098;28;20196;-82
2023/01/15 05:08:59;;;;;;;0.80;0.80;;;;;;;10.19;53.54;94433.09;5074891;28;20246;-84
2023/01/15 05:11:25;;;;;;;1.30;0.80;;;;;;;10.17;53.83;94426.53;5073015;28;20708;-84
2023/01/15 05:13:52;;;;;;;0.80;0.80;;;;;;;10.18;53.90;94425.56;5074209;28;20224;-83
2023/01/15 05:16:20;;;;;;;0.73;0.73;;;;;;;10.20;53.67;94432.09;5074224;28;20226;-84
2023/01/15 05:18:47;;;;;;;1.13;0.73;;;;;;;10.18;53.68;94436.63;5070498;28;20209;-84
2023/01/15 05:21:16;;;;;;;0.90;0.87;;;;;;;10.19;53.92;94434.88;5070599;28;20541;-84
2023/01/15 05:23:44;;;;;;;3.20;2.90;;;;;;;10.18;53.89;94440.97;5074698;28;20200;-84
2023/01/15 05:26:12;;;;;;;1.10;1.00;;;;;;;10.17;53.88;94436.81;5074639;28;20216;-84
2023/01/15 05:28:38;;;;;;;1.13;1.03;;;;;;;10.17;54.10;94417.03;5073297;28;20743;-84
2023/01/15 05:31:07;;;;;;;0.80;0.80;;;;;;;10.12;55.03;94419.44;5074723;28;20208;-86
2023/01/15 05:33:34;;;;;;;0.90;0.73;;;;;;;10.16;54.93;94420.59;5074242;28;20245;-86
2023/01/15 05:36:02;;;;;;;0.70;0.70;;;;;;;10.19;54.83;94425.38;5071327;28;20196;-84
2023/01/15 05:38:28;;;;;;;1.23;0.70;;;;;;;10.24;55.73;94424.75;5067142;28;20225;-84
2023/01/15 05:40:56;;;;;;;0.90;0.70;;;;;;;10.36;56.37;94418.00;5064131;28;20201;-84
2023/01/15 05:43:23;;;;;;;0.53;0.53;;;;;;;10.45;56.79;94406.47;5073163;28;20189;-84
2023/01/15 05:45:49;;;;;;;0.60;0.60;;;;;;;10.58;56.89;94401.25;5076542;28;20197;-84
2023/01/15 05:48:15;;;;;;;0.40;0.40;;;;;;;10.68;56.84;94408.56;5076330;28;20621;-83
2023/01/15 05:50:42;;;;;;;1.30;0.50;;;;;;;10.79;57.23;94407.88;5076162;28;20664;-83
2023/01/15 05:53:08;;;;;;;0.60;0.60;;;;;;;10.89;57.54;94410.03;5075867;28;20593;-84
2023/01/15 05:55:35;;;;;;;1.47;0.50;;;;;;;11.00;57.97;94406.78;5075027;28;20216;-84
2023/01/15 05:58:03;;;;;;;0.40;0.40;;;;;;;11.11;58.42;94421.59;5074838;28;20220;-84
2023/01/15 06:00:29;;;;;;;0.40;0.40;;;;;;;11.21;58.42;94409.03;5074158;28;20205;-84
2023/01/15 06:02:55;;;;;;;0.50;0.50;;;;;;;11.30;58.97;94402.63;5073066;28;20216;-85
2023/01/15 06:05:22;;;;;;;0.50;0.50;;;;;;;11.40;58.63;94402.94;5073058;28;20193;-84
2023/01/15 06:07:51;;;;;;;0.40;0.40;;;;;;;11.50;58.97;94401.69;5073074;28;20216;-84
2023/01/15 06:10:18;;;;;;;0.40;0.40;;;;;;;11.54;58.51;94413.94;5072778;28;20215;-84
2023/01/15 06:12:44;;;;;;;0.30;0.30;;;;;;;11.59;58.88;94411.50;5071258;28;20212;-84
2023/01/15 06:15:12;;;;;;;0.40;0.40;;;;;;;11.62;58.91;94415.47;5067615;28;20227;-84
2023/01/15 06:17:39;;;;;;;0.37;0.37;;;;;;;11.65;58.45;94415.81;5061435;28;20224;-83
2023/01/15 06:20:06;;;;;;;0.40;0.40;;;;;;;11.68;58.43;94415.41;5067221;28;20204;-84
2023/01/15 06:22:33;;;;;;;0.40;0.40;;;;;;;11.72;58.53;94429.47;5069871;28;20202;-84
2023/01/15 06:24:59;;;;;;;0.40;0.40;;;;;;;11.77;58.31;94423.69;5067483;28;20201;-84
2023/01/15 06:27:26;;;;;;;0.33;0.33;;;;;;;11.80;58.86;94422.47;5065592;28;20224;-83
2023/01/15 06:29:52;;;;;;;0.30;0.30;;;;;;;11.81;58.57;94419.69;5068138;28;20188;-85
2023/01/15 06:32:20;;;;;;;0.30;0.30;;;;;;;11.85;58.87;94436.31;5065984;28;20279;-84
2023/01/15 06:34:46;;;;;;;0.30;0.30;;;;;;;11.90;58.81;94425.38;5067153;28;20213;-84
2023/01/15 06:37:13;;;;;;;0.40;0.40;;;;;;;11.96;59.40;94427.06;5066180;28;20213;-84
2023/01/15 06:39:39;;;;;;;0.33;0.33;;;;;;;11.95;59.25;94420.34;5065419;28;20201;-84
2023/01/15 06:47:35;;;;;;;0.30;0.30;;;;;;;11.95;60.10;94412.59;5068615;28;20231;-84
2023/01/15 06:50:02;;;;;;;0.30;0.30;;;;;;;11.95;60.13;94415.97;5068832;28;20189;-84
2023/01/15 06:52:29;;;;;;;0.37;0.37;;;;;;;11.96;60.53;94412.38;5068922;28;20197;-84
2023/01/15 06:54:56;;;;;;;0.30;0.30;;;;;;;12.01;60.30;94409.19;5067258;28;20369;-84
2023/01/15 06:57:22;;;;;;;0.30;0.30;;;;;;;12.01;60.76;94414.34;5065744;28;20588;-85
2023/01/15 06:59:50;;;;;;;1.07;0.30;;;;;;;12.07;60.36;94409.13;5067165;28;20197;-85
2023/01/15 07:02:17;;;;;;;1.17;0.40;;;;;;;12.06;60.93;94411.91;5067408;28;20209;-84
2023/01/15 07:04:46;;;;;;;0.40;0.40;;;;;;;12.03;61.50;94415.69;5072196;28;20196;-83
2023/01/15 07:07:13;;;;;;;0.40;0.40;;;;;;;12.08;62.04;94395.22;5072520;28;20208;-84
2023/01/15 07:09:39;;;;;;;0.30;0.30;;;;;;;12.10;62.05;94395.00;5073329;28;20219;-82
2023/01/15 07:12:06;;;;;;;0.40;0.40;;;;;;;12.13;61.92;94391.19;5074303;28;20734;-84
2023/01/15 07:14:32;;;;;;;0.40;0.40;;;;;;;12.18;61.93;94394.69;5074959;28;20225;-84
2023/01/15 07:16:59;;;;;;;0.40;0.40;;;;;;;12.22;61.66;94395.84;5076838;28;20221;-84
2023/01/15 07:19:26;;;;;;;0.30;0.30;;;;;;;12.14;62.01;94398.72;5077000;28;20200;-85
2023/01/15 07:21:53;;;;;;;0.40;0.40;;;;;;;12.16;62.05;94396.72;5075953;28;20226;-84
2023/01/15 07:24:20;;;;;;;0.37;0.37;;;;;;;12.17;62.17;94387.97;5075906;28;20192;-84
2023/01/15 07:26:46;;;;;;;0.30;0.30;;;;;;;12.14;62.37;94382.44;5077594;28;20189;-84
2023/01/15 07:29:13;;;;;;;0.23;0.23;;;;;;;12.14;62.70;94382.44;5077226;28;20679;-85
2023/01/15 07:31:40;;;;;;;0.73;0.50;;;;;;;12.14;62.77;94395.34;5075799;28;20266;-85
2023/01/15 07:34:07;;;;;;;0.37;0.37;;;;;;;12.17;62.69;94397.50;5076636;28;20229;-85
2023/01/15 07:36:34;;;;;;;0.97;0.60;;;;;;;12.17;62.59;94400.88;5079444;28;20215;-84
2023/01/15 07:39:03;;;;;;;0.40;0.40;;;;;;;12.15;62.70;94404.66;5079192;28;20212;-85
2023/01/15 07:49:49;;;;;;;0.40;0.40;;;;;;;12.12;62.08;94421.38;5079513;28;20211;-87
2023/01/15 07:52:19;;;;;;;0.97;0.50;;;;;;;12.18;61.88;94419.72;5079666;28;20196;-86
2023/01/15 07:54:49;;;;;;;0.40;0.40;;;;;;;12.18;61.94;94423.09;5079144;28;20221;-87
2023/01/15 07:57:18;;;;;;;0.47;0.47;;;;;;;12.20;61.97;94422.88;5080351;28;20216;-84
2023/01/15 07:59:45;;;;;;;0.30;0.30;;;;;;;12.16;61.54;94401.88;5080703;28;20203;-86
2023/01/15 08:02:11;;;;;;;0.40;0.40;;;;;;;12.15;61.90;94417.56;5079461;28;20590;-86
2023/01/15 08:04:38;;;;;;;0.30;0.30;;;;;;;12.18;61.97;94412.75;5078923;28;20689;-84
2023/01/15 08:07:05;;;;;;;0.43;0.43;;;;;;;12.21;61.84;94408.97;5079453;28;20221;-84
2023/01/15 08:09:32;;;;;;;0.50;0.50;;;;;;;12.25;61.78;94404.97;5078780;28;20212;-84
2023/01/15 08:17:30;;;;;;;1.00;0.80;;;;;;;12.23;62.09;94401.81;5079486;28;20224;-85
2023/01/15 08:19:57;;;;;;;0.40;0.40;;;;;;;12.21;61.95;94393.50;5079887;28;20216;-84
2023/01/15 08:22:23;;;;;;;0.43;0.43;;;;;;;12.26;62.17;94391.06;5078226;28;20196;-87
2023/01/15 08:24:49;;;;;;;0.40;0.40;;;;;;;12.29;61.98;94406.13;5079168;28;20201;-87
2023/01/15 08:27:18;;;;;;;0.40;0.40;;;;;;;12.31;62.00;94398.94;5079670;28;20224;-85
2023/01/15 08:29:45;;;;;;;0.60;0.40;;;;;;;12.28;62.34;94399.38;5078598;28;20258;-87
2023/01/15 08:32:12;;;;;;;0.40;0.40;;;;;;;12.28;62.23;94401.97;5078545;28;20201;-86
2023/01/15 08:34:38;;;;;;;0.40;0.40;;;;;;;12.34;62.00;94396.69;5077597;28;20240;-86
2023/01/15 08:37:05;;;;;;;0.40;0.40;;;;;;;12.41;61.78;94396.63;5078503;28;20217;-86
2023/01/15 08:39:31;;;;;;;0.60;0.60;;;;;;;12.38;61.84;94400.44;5077294;28;20196;-87
2023/01/15 08:42:00;;;;;;;0.53;0.53;;;;;;;12.45;61.77;94390.81;5077629;28;20565;-86
2023/01/15 08:44:28;;;;;;;0.80;0.60;;;;;;;12.51;61.43;94375.47;5077919;28;20189;-87
2023/01/15 08:46:57;;;;;;;0.50;0.50;;;;;;;12.54;61.45;94364.69;5077986;28;20208;-86
2023/01/15 08:49:24;;;;;;;2.20;0.50;;;;;;;12.55;61.07;94368.84;5078241;28;21485;-87
2023/01/15 08:51:51;;;;;;;0.50;0.50;;;;;;;12.55;60.79;94372.22;5078041;28;20254;-87
2023/01/15 08:54:19;;;;;;;0.50;0.50;;;;;;;12.59;60.42;94364.84;5078764;28;20224;-87
2023/01/15 08:56:46;;;;;;;0.40;0.40;;;;;;;12.56;59.92;94360.09;5078246;28;20575;-86
2023/01/15 08:59:12;;;;;;;0.50;0.50;;;;;;;12.62;59.79;94367.00;5077629;28;20204;-87
2023/01/15 09:01:41;;;;;;;0.40;0.40;;;;;;;12.63;59.59;94360.81;5078612;28;20197;-87
2023/01/15 09:04:07;;;;;;;1.90;0.43;;;;;;;12.63;59.63;94340.16;5078964;28;20201;-87
2023/01/15 09:06:33;;;;;;;0.60;0.50;;;;;;;12.69;58.92;94341.88;5079351;28;20227;-87
2023/01/15 09:09:00;;;;;;;1.77;1.50;;;;;;;12.74;58.64;94352.31;5078431;28;20236;-86
2023/01/15 09:11:28;;;;;;;0.67;0.40;;;;;;;12.76;57.95;94345.13;5077897;28;20197;-86
2023/01/15 09:13:55;;;;;;;0.40;0.40;;;;;;;12.78;58.14;94356.81;5075977;28;20193;-86
2023/01/15 09:16:21;;;;;;;0.50;0.50;;;;;;;12.84;57.52;94341.47;5075890;28;20221;-86
2023/01/15 09:18:49;;;;;;;0.50;0.50;;;;;;;12.90;57.26;94338.75;5078159;28;20229;-85
2023/01/15 09:21:15;;;;;;;0.50;0.50;;;;;;;12.95;57.00;94340.69;5075782;28;20206;-87
2023/01/15 09:23:42;;;;;;;0.47;0.47;;;;;;;12.91;56.55;94324.84;5078010;28;20201;-85
2023/01/15 09:26:27;;;;;;;0.60;0.60;;;;;;;13.02;56.06;94318.94;5077573;28;20200;-85
2023/01/15 09:28:53;;;;;;;1.87;1.00;;;;;;;13.08;55.24;94320.59;5076170;28;20256;-86
2023/01/15 09:31:25;;;;;;;0.83;0.77;;;;;;;13.14;54.95;94306.81;5077941;28;20217;-87
2023/01/15 09:33:56;;;;;;;0.70;0.70;;;;;;;13.20;54.36;94297.41;5078666;28;20189;-86
2023/01/15 09:36:26;;;;;;;0.87;0.57;;;;;;;13.31;54.52;94306.16;5077860;28;20223;-89
2023/01/15 09:39:08;;;;;;;0.60;0.60;;;;;;;13.33;53.57;94304.16;5070791;28;20248;-88
2023/01/15 09:42:07;;;;;;;0.60;0.60;;;;;;;13.42;53.59;94300.22;5069704;28;20200;-89
2023/01/15 09:44:42;;;;;;;0.63;0.60;;;;;;;13.57;53.23;94304.94;5070038;28;20219;-89
2023/01/15 09:47:14;;;;;;;1.03;0.60;;;;;;;13.56;52.77;94293.81;5069142;28;20594;-89
2023/01/15 09:49:59;;;;;;;0.90;0.60;;;;;;;13.60;52.79;94286.38;5070348;28;20197;-87
2023/01/15 09:52:56;;;;;;;0.60;0.60;;;;;;;13.62;52.98;94282.56;5069982;28;20570;-89
2023/01/15 09:55:27;;;;;;;1.60;0.70;;;;;;;13.64;52.77;94283.13;5070404;28;20217;-88
2023/01/15 09:58:04;;;;;;;1.90;0.70;;;;;;;13.65;53.08;94299.44;5067369;28;20233;-88
2023/01/15 10:00:38;;;;;;;1.23;0.80;;;;;;;13.55;53.00;94306.97;5069851;28;20235;-89
2023/01/15 10:03:23;;;;;;;0.87;0.67;;;;;;;13.56;53.02;94360.25;5054825;28;20197;-89
2023/01/15 10:06:07;;;;;;;0.60;0.60;;;;;;;13.27;57.25;94388.56;5069016;28;20207;-88
2023/01/15 10:08:38;;;;;;;0.87;0.50;;;;;;;12.60;60.33;94392.22;5071079;28;20278;-86
2023/01/15 10:11:14;;;;;;;0.60;0.60;;;;;;;12.09;61.93;94445.03;5075376;28;20203;-87
2023/01/15 10:13:47;;;;;;;0.40;0.40;;;;;;;11.71;62.66;94466.56;5074836;28;20201;-86
2023/01/15 10:16:22;;;;;;;0.50;0.50;;;;;;;11.27;62.98;94489.84;5076338;28;20222;-87
2023/01/15 10:18:49;;;;;;;0.40;0.40;;;;;;;10.96;63.41;94518.94;5076203;28;20247;-86
2023/01/15 10:21:30;;;;;;;0.40;0.40;;;;;;;10.53;63.65;94534.94;5076139;28;20199;-85
2023/01/15 10:24:06;;;;;;;0.40;0.30;;;;;;;10.27;64.37;94556.34;5056430;28;20194;-85
2023/01/15 10:26:37;;;;;;;0.33;0.33;;;;;;;10.07;64.75;94573.53;5075302;28;20196;-85
2023/01/15 10:29:13;;;;;;;0.40;0.40;;;;;;;9.92;65.45;94563.44;5075756;28;20224;-86
2023/01/15 10:31:48;;;;;;;0.97;0.33;;;;;;;9.83;65.96;94592.88;5076273;28;20204;-87
2023/01/15 10:35:06;;;;;;;0.30;0.30;;;;;;;9.70;66.94;94592.88;5075984;28;20200;-86
2023/01/15 10:37:40;;;;;;;0.30;0.30;;;;;;;9.46;67.44;94601.13;5076749;28;20269;-86
2023/01/15 10:40:18;;;;;;;0.37;0.37;;;;;;;9.44;67.65;94619.28;5075719;28;20204;-85
2023/01/15 10:42:54;;;;;;;1.37;0.50;;;;;;;9.40;67.57;94612.19;5075520;28;20261;-87
2023/01/15 10:45:24;;;;;;;0.40;0.40;;;;;;;9.21;68.01;94614.50;5077590;28;20196;-87
2023/01/15 10:48:00;;;;;;;0.40;0.40;;;;;;;9.18;68.26;94625.13;5075706;28;20221;-86
2023/01/15 10:50:27;;;;;;;6.10;5.23;;;;;;;9.17;68.86;94626.13;5075183;28;20218;-87
2023/01/15 10:53:08;;;;;;;10.40;8.17;;;;;;;9.29;67.93;94632.28;5074986;28;21088;-86
2023/01/15 10:55:38;;;;;;;0.80;0.80;;;;;;;9.30;67.38;94628.72;5069255;28;20216;-86
2023/01/15 10:58:13;;;;;;;0.40;0.40;;;;;;;9.21;68.04;94642.75;5074019;28;20232;-85
2023/01/15 11:00:41;;;;;;;0.83;0.50;;;;;;;9.08;68.51;94641.88;5074498;28;20208;-86
2023/01/15 11:03:17;;;;;;;0.87;0.47;;;;;;;8.92;68.98;94658.38;5072710;28;20209;-86
2023/01/15 11:05:44;;;;;;;0.50;0.50;;;;;;;8.90;69.17;94656.00;5072848;28;20220;-86
2023/01/15 11:08:25;;;;;;;0.67;0.50;;;;;;;8.96;69.52;94652.69;5073888;28;20220;-86
2023/01/15 11:10:52;;;;;;;0.97;0.50;;;;;;;8.97;68.88;94644.00;5074199;28;20742;-86
2023/01/15 11:21:53;;;;;;;3.10;2.73;;;;;;;8.94;70.10;94646.94;5060216;28;20207;-86
2023/01/15 11:24:21;;;;;;;4.50;3.80;;;;;;;8.92;70.14;94640.41;5060869;28;20196;-87
2023/01/15 11:26:53;;;;;;;1.10;1.00;;;;;;;8.87;71.05;94640.16;5075101;28;20196;-87
2023/01/15 11:29:30;;;;;;;0.70;0.60;;;;;;;8.91;69.82;94642.19;5074581;28;20569;-87
2023/01/15 11:31:56;;;;;;;0.40;0.40;;;;;;;8.92;70.55;94648.91;5075155;28;20204;-86
2023/01/15 11:34:23;;;;;;;0.50;0.50;;;;;;;8.92;71.56;94640.41;5075165;28;20201;-85
2023/01/15 11:37:00;;;;;;;0.40;0.40;;;;;;;8.93;71.40;94642.78;5075912;28;20217;-86
2023/01/15 11:39:30;;;;;;;0.50;0.50;;;;;;;8.78;73.47;94641.31;5074503;28;20228;-86
2023/01/15 11:50:52;;;;;;;0.40;0.40;;;;;;;8.38;76.51;94692.34;5065181;28;20211;-85
2023/01/15 11:53:22;;;;;;;0.47;0.47;;;;;;;8.42;76.87;94706.38;5074110;28;20200;-85
2023/01/15 11:56:06;;;;;;;0.50;0.50;;;;;;;8.50;77.16;94716.50;5074956;28;20240;-86
2023/01/15 11:58:41;;;;;;;0.60;0.60;;;;;;;8.35;78.00;94725.25;5074461;28;20212;-86
2023/01/15 12:01:08;;;;;;;0.60;0.60;;;;;;;8.39;75.39;94729.84;5076629;28;20586;-85
2023/01/15 12:03:36;;;;;;;0.60;0.60;;;;;;;8.35;75.76;94735.50;5074624;28;20205;-86
2023/01/15 12:06:07;;;;;;;0.70;0.70;;;;;;;8.34;75.39;94726.22;5076703;28;20189;-85
2023/01/15 12:08:49;;;;;;;0.70;0.70;;;;;;;8.37;76.40;94743.81;5075831;28;20213;-86
2023/01/15 12:11:42;;;;;;;0.90;0.90;;;;;;;8.46;76.64;94756.34;5075182;28;20192;-85
2023/01/15 12:14:33;;;;;;;0.60;0.60;;;;;;;8.40;77.12;94758.84;5077316;28;20212;-85
2023/01/15 12:17:07;;;;;;;0.70;0.70;;;;;;;8.37;77.23;94764.34;5074192;28;20278;-85
2023/01/15 12:19:42;;;;;;;0.70;0.70;;;;;;;8.38;78.42;94787.22;5074785;28;20254;-85
2023/01/15 12:22:20;;;;;;;0.50;0.50;;;;;;;8.29;76.01;94778.03;5075023;28;20201;-85
2023/01/15 12:25:16;;;;;;;0.50;0.50;;;;;;;8.21;77.31;94776.38;5079962;28;20212;-84
2023/01/15 12:27:57;;;;;;;0.70;0.70;;;;;;;8.28;77.39;94779.78;5079289;28;20274;-85
2023/01/15 12:30:39;;;;;;;1.83;1.17;;;;;;;8.20;77.88;94786.81;5079063;28;20303;-85
2023/01/15 12:33:21;;;;;;;1.77;1.10;;;;;;;8.19;78.41;94786.03;5079003;28;20201;-85
2023/01/15 12:35:55;;;;;;;0.90;0.70;;;;;;;8.29;77.60;94790.84;5078530;28;20239;-84